sensor_id;sensor_type;location;lat;lon;timestamp;pressure;altitude;pressure_sealevel;temperature;humidity
7888;BME280;3989;48.810;9.208;2023-03-01T10:26:02;99263.72;;;4.84;63.51
7888;BME280;3989;48.810;9.208;2023-03-01T10:28:42;99260.69;;;4.98;61.70
7888;BME280;3989;48.810;9.208;2023-03-01T10:31:12;99223.47;;;4.81;59.92
7888;BME280;3989;48.810;9.208;2023-03-01T10:33:40;99244.41;;;4.93;58.53
7888;BME280;3989;48.810;9.208;2023-03-01T10:36:07;99188.47;;;4.67;59.40
7888;BME280;3989;48.810;9.208;2023-03-01T10:38:48;99234.13;;;5.00;58.99
7888;BME280;3989;48.810;9.208;2023-03-01T10:41:19;99160.84;;;4.51;58.63
7888;BME280;3989;48.810;9.208;2023-03-01T10:43:50;99243.34;;;5.05;57.66
7888;BME280;3989;48.810;9.208;2023-03-01T10:46:23;99250.44;;;5.05;58.18
7888;BME280;3989;48.810;9.208;2023-03-01T10:49:06;99243.22;;;5.07;57.80
7888;BME280;3989;48.810;9.208;2023-03-01T10:51:33;99209.19;;;4.93;57.05
7888;BME280;3989;48.810;9.208;2023-03-01T10:54:00;99146.72;;;4.61;57.37
7888;BME280;3989;48.810;9.208;2023-03-01T10:56:45;99128.06;;;4.63;57.60
7888;BME280;3989;48.810;9.208;2023-03-01T10:59:22;99184.88;;;5.08;57.42
7888;BME280;3989;48.810;9.208;2023-03-01T11:02:03;99176.84;;;5.19;57.25
7888;BME280;3989;48.810;9.208;2023-03-01T11:04:34;99197.47;;;5.25;56.41
7888;BME280;3989;48.810;9.208;2023-03-01T11:07:02;99190.66;;;5.33;56.72
7888;BME280;3989;48.810;9.208;2023-03-01T11:09:31;99218.56;;;5.56;57.19
7888;BME280;3989;48.810;9.208;2023-03-01T11:12:11;99183.56;;;5.33;55.86
7888;BME280;3989;48.810;9.208;2023-03-01T11:14:46;99168.94;;;5.29;55.92
7888;BME280;3989;48.810;9.208;2023-03-01T11:17:17;99205.47;;;5.54;56.30
7888;BME280;3989;48.810;9.208;2023-03-01T11:19:59;99198.66;;;5.61;56.34
7888;BME280;3989;48.810;9.208;2023-03-01T11:22:27;99053.66;;;4.77;56.14
7888;BME280;3989;48.810;9.208;2023-03-01T11:24:55;99185.44;;;5.80;56.22
7888;BME280;3989;48.810;9.208;2023-03-01T11:27:28;99153.50;;;5.72;55.28
7888;BME280;3989;48.810;9.208;2023-03-01T11:29:58;99173.47;;;5.96;55.12
7888;BME280;3989;48.810;9.208;2023-03-01T11:32:31;99179.75;;;6.14;54.99
7888;BME280;3989;48.810;9.208;2023-03-01T11:35:02;99072.41;;;5.71;54.59
7888;BME280;3989;48.810;9.208;2023-03-01T11:37:35;99174.84;;;6.28;53.98
7888;BME280;3989;48.810;9.208;2023-03-01T11:40:12;99157.13;;;6.29;53.48
7888;BME280;3989;48.810;9.208;2023-03-01T11:42:56;99104.72;;;6.04;53.84
7888;BME280;3989;48.810;9.208;2023-03-01T11:45:30;99160.72;;;6.38;53.64
7888;BME280;3989;48.810;9.208;2023-03-01T11:48:12;99152.31;;;6.52;53.67
7888;BME280;3989;48.810;9.208;2023-03-01T11:50:44;99094.09;;;6.23;53.41
7888;BME280;3989;48.810;9.208;2023-03-01T11:53:34;99118.84;;;6.41;53.13
7888;BME280;3989;48.810;9.208;2023-03-01T11:56:16;99087.06;;;6.31;53.24
7888;BME280;3989;48.810;9.208;2023-03-01T11:58:58;99144.59;;;6.68;52.82
7888;BME280;3989;48.810;9.208;2023-03-01T12:01:42;99121.25;;;6.71;52.71
7888;BME280;3989;48.810;9.208;2023-03-01T12:07:25;99123.84;;;6.91;52.68
7888;BME280;3989;48.810;9.208;2023-03-01T12:10:14;99083.63;;;6.85;52.10
7888;BME280;3989;48.810;9.208;2023-03-01T12:12:53;99102.56;;;7.00;51.67
7888;BME280;3989;48.810;9.208;2023-03-01T12:15:48;99090.50;;;7.06;51.65
7888;BME280;3989;48.810;9.208;2023-03-01T12:18:32;99051.06;;;6.93;51.36
7888;BME280;3989;48.810;9.208;2023-03-01T12:21:08;98948.16;;;6.24;51.33
7888;BME280;3989;48.810;9.208;2023-03-01T12:24:03;99053.72;;;6.93;51.03
7888;BME280;3989;48.810;9.208;2023-03-01T12:26:34;98962.31;;;6.43;51.79
7888;BME280;3989;48.810;9.208;2023-03-01T12:29:12;99006.06;;;6.74;51.34
7888;BME280;3989;48.810;9.208;2023-03-01T12:31:55;99049.78;;;7.15;51.27
7888;BME280;3989;48.810;9.208;2023-03-01T12:37:33;99008.78;;;7.27;51.45
7888;BME280;3989;48.810;9.208;2023-03-01T12:43:22;99005.16;;;7.54;49.97
7888;BME280;3989;48.810;9.208;2023-03-01T12:46:09;99035.34;;;7.88;49.70
7888;BME280;3989;48.810;9.208;2023-03-01T12:48:46;99039.06;;;7.77;49.82
7888;BME280;3989;48.810;9.208;2023-03-01T12:51:16;98899.53;;;6.96;49.87
7888;BME280;3989;48.810;9.208;2023-03-01T12:53:47;98902.25;;;7.04;49.74
7888;BME280;3989;48.810;9.208;2023-03-01T12:56:17;98990.34;;;7.43;49.85
7888;BME280;3989;48.810;9.208;2023-03-01T12:58:53;98918.09;;;7.14;49.67
7888;BME280;3989;48.810;9.208;2023-03-01T13:01:32;98984.94;;;7.53;50.34
7888;BME280;3989;48.810;9.208;2023-03-01T13:04:12;99012.19;;;7.80;50.14
7888;BME280;3989;48.810;9.208;2023-03-01T13:06:47;98938.94;;;7.52;50.42
7888;BME280;3989;48.810;9.208;2023-03-01T13:09:22;98997.53;;;8.02;49.95
7888;BME280;3989;48.810;9.208;2023-03-01T13:11:50;98996.91;;;8.08;49.74
7888;BME280;3989;48.810;9.208;2023-03-01T13:14:36;99001.63;;;8.22;49.28
7888;BME280;3989;48.810;9.208;2023-03-01T13:17:07;98966.13;;;7.98;49.04
7888;BME280;3989;48.810;9.208;2023-03-01T13:19:58;98881.84;;;7.56;49.65
7888;BME280;3989;48.810;9.208;2023-03-01T13:22:28;98972.94;;;8.00;49.04
7888;BME280;3989;48.810;9.208;2023-03-01T13:25:01;98989.19;;;8.23;48.91
7888;BME280;3989;48.810;9.208;2023-03-01T13:27:28;98962.31;;;8.00;49.08
7888;BME280;3989;48.810;9.208;2023-03-01T13:29:57;99001.97;;;8.19;48.95
7888;BME280;3989;48.810;9.208;2023-03-01T13:32:29;98927.94;;;7.73;48.83
7888;BME280;3989;48.810;9.208;2023-03-01T13:35:00;99000.47;;;8.17;49.02
7888;BME280;3989;48.810;9.208;2023-03-01T13:37:33;99000.78;;;8.14;49.03
7888;BME280;3989;48.810;9.208;2023-03-01T13:42:46;98995.56;;;8.04;49.30
7888;BME280;3989;48.810;9.208;2023-03-01T13:45:17;98995.56;;;8.04;49.80
7888;BME280;3989;48.810;9.208;2023-03-01T13:47:45;99003.03;;;8.01;50.03
7888;BME280;3989;48.810;9.208;2023-03-01T13:50:19;98968.81;;;7.72;49.87
7888;BME280;3989;48.810;9.208;2023-03-01T13:52:50;98854.84;;;7.09;49.79
7888;BME280;3989;48.810;9.208;2023-03-01T13:55:20;98971.59;;;7.70;50.03
7888;BME280;3989;48.810;9.208;2023-03-01T13:57:49;98990.94;;;7.80;50.40
7888;BME280;3989;48.810;9.208;2023-03-01T14:00:38;98997.19;;;7.71;50.41
7888;BME280;3989;48.810;9.208;2023-03-01T14:03:09;99004.84;;;7.74;50.77
7888;BME280;3989;48.810;9.208;2023-03-01T14:05:39;98983.91;;;7.71;50.96
7888;BME280;3989;48.810;9.208;2023-03-01T14:08:19;98949.63;;;7.60;50.95
7888;BME280;3989;48.810;9.208;2023-03-01T14:10:57;98965.31;;;7.71;50.94
7888;BME280;3989;48.810;9.208;2023-03-01T14:13:33;98946.50;;;7.65;50.76
7888;BME280;3989;48.810;9.208;2023-03-01T14:16:16;98977.88;;;7.69;51.03
7888;BME280;3989;48.810;9.208;2023-03-01T14:18:52;98987.72;;;7.69;51.37
7888;BME280;3989;48.810;9.208;2023-03-01T14:21:22;98931.91;;;7.43;51.18
7888;BME280;3989;48.810;9.208;2023-03-01T14:23:51;98927.91;;;7.39;51.59
7888;BME280;3989;48.810;9.208;2023-03-01T14:26:21;98985.31;;;7.83;51.46
7888;BME280;3989;48.810;9.208;2023-03-01T14:28:48;98994.03;;;7.76;51.16
7888;BME280;3989;48.810;9.208;2023-03-01T14:31:39;99013.78;;;7.73;51.59
7888;BME280;3989;48.810;9.208;2023-03-01T14:34:18;98988.78;;;7.58;51.47
7888;BME280;3989;48.810;9.208;2023-03-01T14:36:47;98963.31;;;7.48;51.55
7888;BME280;3989;48.810;9.208;2023-03-01T14:39:17;98975.38;;;7.42;51.35
7888;BME280;3989;48.810;9.208;2023-03-01T14:41:44;99000.59;;;7.64;51.51
7888;BME280;3989;48.810;9.208;2023-03-01T14:44:15;98989.97;;;7.64;51.94
7888;BME280;3989;48.810;9.208;2023-03-01T14:46:44;98978.19;;;7.66;51.72
7888;BME280;3989;48.810;9.208;2023-03-01T14:49:12;98911.28;;;7.37;51.38
7888;BME280;3989;48.810;9.208;2023-03-01T14:51:42;98981.56;;;7.68;51.24
7888;BME280;3989;48.810;9.208;2023-03-01T14:54:20;98903.72;;;7.24;51.05
7888;BME280;3989;48.810;9.208;2023-03-01T14:56:47;98975.03;;;7.63;51.07
7888;BME280;3989;48.810;9.208;2023-03-01T14:59:14;98850.19;;;6.85;51.31
7888;BME280;3989;48.810;9.208;2023-03-01T15:01:41;99000.25;;;7.84;51.54
7888;BME280;3989;48.810;9.208;2023-03-01T15:04:11;99001.59;;;7.88;51.60
7888;BME280;3989;48.810;9.208;2023-03-01T15:06:39;98967.38;;;7.60;51.58
7888;BME280;3989;48.810;9.208;2023-03-01T15:09:06;98960.94;;;7.62;51.32
7888;BME280;3989;48.810;9.208;2023-03-01T15:11:35;98857.47;;;6.83;51.37
7888;BME280;3989;48.810;9.208;2023-03-01T15:14:25;98999.53;;;7.74;51.73
7888;BME280;3989;48.810;9.208;2023-03-01T15:16:52;99004.00;;;7.74;51.75
7888;BME280;3989;48.810;9.208;2023-03-01T15:19:19;98979.31;;;7.56;51.88
7888;BME280;3989;48.810;9.208;2023-03-01T15:21:48;98926.53;;;7.35;51.67
7888;BME280;3989;48.810;9.208;2023-03-01T15:24:18;99001.03;;;7.77;51.63
7888;BME280;3989;48.810;9.208;2023-03-01T15:26:51;99005.28;;;7.70;51.62
7888;BME280;3989;48.810;9.208;2023-03-01T15:29:21;98981.16;;;7.63;51.76
7888;BME280;3989;48.810;9.208;2023-03-01T15:31:56;98999.66;;;7.73;51.81
7888;BME280;3989;48.810;9.208;2023-03-01T15:34:25;99007.94;;;7.70;51.73
7888;BME280;3989;48.810;9.208;2023-03-01T15:36:53;99006.97;;;7.71;51.79
7888;BME280;3989;48.810;9.208;2023-03-01T15:39:41;98948.00;;;7.42;51.41
7888;BME280;3989;48.810;9.208;2023-03-01T15:42:11;99009.09;;;7.67;51.90
7888;BME280;3989;48.810;9.208;2023-03-01T15:44:40;98975.75;;;7.47;51.40
7888;BME280;3989;48.810;9.208;2023-03-01T15:47:26;98997.72;;;7.57;51.26
7888;BME280;3989;48.810;9.208;2023-03-01T15:49:54;98969.16;;;7.33;51.24
7888;BME280;3989;48.810;9.208;2023-03-01T15:52:26;98994.53;;;7.54;51.20
7888;BME280;3989;48.810;9.208;2023-03-01T15:54:56;98996.38;;;7.53;51.41
7888;BME280;3989;48.810;9.208;2023-03-01T15:57:25;98982.41;;;7.51;51.66
7888;BME280;3989;48.810;9.208;2023-03-01T15:59:51;98829.22;;;6.57;51.16
7888;BME280;3989;48.810;9.208;2023-03-01T16:02:18;98940.00;;;7.16;51.21
7888;BME280;3989;48.810;9.208;2023-03-01T16:04:46;98974.31;;;7.35;51.46
7888;BME280;3989;48.810;9.208;2023-03-01T16:07:13;98928.00;;;7.12;51.71
7888;BME280;3989;48.810;9.208;2023-03-01T16:09:40;98965.81;;;7.31;51.35
7888;BME280;3989;48.810;9.208;2023-03-01T16:12:12;98979.94;;;7.32;51.10
7888;BME280;3989;48.810;9.208;2023-03-01T16:14:41;98877.69;;;6.67;50.94
7888;BME280;3989;48.810;9.208;2023-03-01T16:17:08;98956.38;;;7.11;51.63
7888;BME280;3989;48.810;9.208;2023-03-01T16:19:35;98926.22;;;6.95;51.67
7888;BME280;3989;48.810;9.208;2023-03-01T16:22:02;98970.88;;;7.17;52.28
7888;BME280;3989;48.810;9.208;2023-03-01T16:24:29;98954.19;;;7.07;52.17
7888;BME280;3989;48.810;9.208;2023-03-01T16:26:55;98811.31;;;6.06;52.51
7888;BME280;3989;48.810;9.208;2023-03-01T16:29:22;98871.56;;;6.84;51.66
7888;BME280;3989;48.810;9.208;2023-03-01T16:31:50;98810.72;;;7.08;50.36
7888;BME280;3989;48.810;9.208;2023-03-01T16:34:16;98929.00;;;8.14;49.32
7888;BME280;3989;48.810;9.208;2023-03-01T16:36:43;98994.88;;;8.70;48.57
7888;BME280;3989;48.810;9.208;2023-03-01T16:39:09;98951.94;;;8.57;48.39
7888;BME280;3989;48.810;9.208;2023-03-01T16:41:36;98964.00;;;8.35;48.75
7888;BME280;3989;48.810;9.208;2023-03-01T16:44:03;98980.59;;;8.29;48.85
7888;BME280;3989;48.810;9.208;2023-03-01T16:46:29;98821.31;;;6.82;49.24
7888;BME280;3989;48.810;9.208;2023-03-01T16:48:57;98982.25;;;7.27;50.67
7888;BME280;3989;48.810;9.208;2023-03-01T16:51:24;98870.88;;;6.02;52.13
7888;BME280;3989;48.810;9.208;2023-03-01T16:53:51;98843.19;;;5.59;53.52
7888;BME280;3989;48.810;9.208;2023-03-01T16:56:18;98994.09;;;6.15;54.64
7888;BME280;3989;48.810;9.208;2023-03-01T16:58:45;98818.34;;;4.87;55.74
7888;BME280;3989;48.810;9.208;2023-03-01T17:01:14;98986.13;;;5.69;57.25
7888;BME280;3989;48.810;9.208;2023-03-01T17:03:42;98976.13;;;5.44;58.05
7888;BME280;3989;48.810;9.208;2023-03-01T17:06:13;99003.72;;;5.41;59.63
7888;BME280;3989;48.810;9.208;2023-03-01T17:08:40;98991.91;;;5.16;60.60
7888;BME280;3989;48.810;9.208;2023-03-01T17:11:08;99014.59;;;5.19;62.10
7888;BME280;3989;48.810;9.208;2023-03-01T17:13:35;98976.44;;;4.83;64.34
7888;BME280;3989;48.810;9.208;2023-03-01T17:16:04;98962.66;;;4.70;64.48
7888;BME280;3989;48.810;9.208;2023-03-01T17:18:31;98928.53;;;4.38;65.79
7888;BME280;3989;48.810;9.208;2023-03-01T17:20:57;98936.44;;;4.38;66.01
7888;BME280;3989;48.810;9.208;2023-03-01T17:23:26;98981.25;;;4.59;67.59
7888;BME280;3989;48.810;9.208;2023-03-01T17:25:53;99033.09;;;4.81;68.25
7888;BME280;3989;48.810;9.208;2023-03-01T17:28:20;99008.13;;;4.54;68.59
7888;BME280;3989;48.810;9.208;2023-03-01T17:30:47;99052.25;;;4.73;67.74
7888;BME280;3989;48.810;9.208;2023-03-01T17:33:14;99041.09;;;4.60;68.85
7888;BME280;3989;48.810;9.208;2023-03-01T17:35:41;99035.22;;;4.47;69.98
7888;BME280;3989;48.810;9.208;2023-03-01T17:38:10;98982.88;;;4.01;71.10
7888;BME280;3989;48.810;9.208;2023-03-01T17:40:39;99048.69;;;4.44;70.94
7888;BME280;3989;48.810;9.208;2023-03-01T17:43:05;98999.63;;;4.11;72.34
7888;BME280;3989;48.810;9.208;2023-03-01T17:45:32;98806.06;;;2.80;71.38
7888;BME280;3989;48.810;9.208;2023-03-01T17:47:58;99010.72;;;4.05;72.79
7888;BME280;3989;48.810;9.208;2023-03-01T17:50:25;99002.59;;;3.87;73.46
7888;BME280;3989;48.810;9.208;2023-03-01T17:52:53;99032.91;;;3.93;74.65
7888;BME280;3989;48.810;9.208;2023-03-01T17:55:19;99061.69;;;3.96;75.53
7888;BME280;3989;48.810;9.208;2023-03-01T17:57:47;99023.06;;;3.74;77.52
7888;BME280;3989;48.810;9.208;2023-03-01T18:00:16;99003.19;;;3.70;77.80
7888;BME280;3989;48.810;9.208;2023-03-01T18:02:43;99046.09;;;3.93;77.57
7888;BME280;3989;48.810;9.208;2023-03-01T18:05:10;99010.25;;;3.69;79.00
7888;BME280;3989;48.810;9.208;2023-03-01T18:07:37;98983.84;;;3.39;79.49
7888;BME280;3989;48.810;9.208;2023-03-01T18:10:05;99019.47;;;3.54;80.41
7888;BME280;3989;48.810;9.208;2023-03-01T18:12:31;99043.88;;;3.67;81.79
7888;BME280;3989;48.810;9.208;2023-03-01T18:14:59;99019.25;;;3.46;82.86
7888;BME280;3989;48.810;9.208;2023-03-01T18:17:26;98998.66;;;3.40;82.75
7888;BME280;3989;48.810;9.208;2023-03-01T18:19:52;99044.81;;;3.66;81.86
7888;BME280;3989;48.810;9.208;2023-03-01T18:22:20;99036.84;;;3.57;82.15
7888;BME280;3989;48.810;9.208;2023-03-01T18:24:47;99018.41;;;3.46;82.50
7888;BME280;3989;48.810;9.208;2023-03-01T18:27:14;99037.16;;;3.63;82.14
7888;BME280;3989;48.810;9.208;2023-03-01T18:29:40;99047.03;;;3.61;82.57
7888;BME280;3989;48.810;9.208;2023-03-01T18:32:09;98782.75;;;2.02;82.69
7888;BME280;3989;48.810;9.208;2023-03-01T18:34:36;98999.81;;;3.27;82.46
7888;BME280;3989;48.810;9.208;2023-03-01T18:37:03;98997.94;;;3.17;83.24
7888;BME280;3989;48.810;9.208;2023-03-01T18:39:30;99063.66;;;3.41;84.49
7888;BME280;3989;48.810;9.208;2023-03-01T18:41:56;98971.53;;;2.76;85.18
7888;BME280;3989;48.810;9.208;2023-03-01T18:44:24;99044.13;;;3.12;88.29
7888;BME280;3989;48.810;9.208;2023-03-01T18:46:51;99060.28;;;3.18;86.96
7888;BME280;3989;48.810;9.208;2023-03-01T18:49:19;98980.78;;;2.59;88.47
7888;BME280;3989;48.810;9.208;2023-03-01T18:51:45;99034.31;;;2.71;89.41
7888;BME280;3989;48.810;9.208;2023-03-01T18:54:12;99010.00;;;2.68;89.93
7888;BME280;3989;48.810;9.208;2023-03-01T18:56:38;98882.56;;;1.94;90.63
7888;BME280;3989;48.810;9.208;2023-03-01T18:59:05;99038.69;;;2.93;91.74
7888;BME280;3989;48.810;9.208;2023-03-01T19:01:32;99033.53;;;2.91;92.29
7888;BME280;3989;48.810;9.208;2023-03-01T19:03:59;99059.53;;;2.85;92.64
7888;BME280;3989;48.810;9.208;2023-03-01T19:06:29;99032.97;;;2.77;92.88
7888;BME280;3989;48.810;9.208;2023-03-01T19:08:58;99036.13;;;2.71;94.98
7888;BME280;3989;48.810;9.208;2023-03-01T19:11:25;98972.25;;;2.24;95.68
7888;BME280;3989;48.810;9.208;2023-03-01T19:13:55;99029.84;;;2.72;97.61
7888;BME280;3989;48.810;9.208;2023-03-01T19:16:24;99025.44;;;2.72;97.48
7888;BME280;3989;48.810;9.208;2023-03-01T19:18:54;98973.78;;;2.38;97.61
7888;BME280;3989;48.810;9.208;2023-03-01T19:21:24;98973.19;;;2.34;97.33
7888;BME280;3989;48.810;9.208;2023-03-01T19:23:53;99018.53;;;2.60;98.48
7888;BME280;3989;48.810;9.208;2023-03-01T19:26:21;99020.31;;;2.59;100.00
7888;BME280;3989;48.810;9.208;2023-03-01T19:28:48;98946.75;;;2.13;100.00
7888;BME280;3989;48.810;9.208;2023-03-01T19:31:17;98885.66;;;1.88;100.00
7888;BME280;3989;48.810;9.208;2023-03-01T19:33:44;98855.34;;;1.62;99.83
7888;BME280;3989;48.810;9.208;2023-03-01T19:36:12;98984.91;;;2.41;100.00
7888;BME280;3989;48.810;9.208;2023-03-01T19:38:40;99000.69;;;2.52;100.00
7888;BME280;3989;48.810;9.208;2023-03-01T19:41:11;98847.09;;;1.44;100.00
7888;BME280;3989;48.810;9.208;2023-03-01T19:43:40;98948.78;;;2.21;100.00
7888;BME280;3989;48.810;9.208;2023-03-01T19:46:07;98940.19;;;2.08;100.00
7888;BME280;3989;48.810;9.208;2023-03-01T19:48:35;98978.25;;;2.26;100.00
7888;BME280;3989;48.810;9.208;2023-03-01T19:51:05;99019.97;;;2.64;100.00
7888;BME280;3989;48.810;9.208;2023-03-01T19:53:32;99022.69;;;2.74;100.00
7888;BME280;3989;48.810;9.208;2023-03-01T19:56:00;98954.31;;;2.29;100.00
7888;BME280;3989;48.810;9.208;2023-03-01T19:58:29;99020.50;;;2.79;100.00
7888;BME280;3989;48.810;9.208;2023-03-01T20:00:57;99019.31;;;2.83;100.00
7888;BME280;3989;48.810;9.208;2023-03-01T20:03:25;98802.84;;;1.49;100.00
7888;BME280;3989;48.810;9.208;2023-03-01T20:05:52;99023.13;;;2.90;100.00
7888;BME280;3989;48.810;9.208;2023-03-01T20:08:18;98975.25;;;2.74;99.90
7888;BME280;3989;48.810;9.208;2023-03-01T20:10:45;98870.09;;;1.96;98.95
7888;BME280;3989;48.810;9.208;2023-03-01T20:13:12;98967.38;;;2.62;99.05
7888;BME280;3989;48.810;9.208;2023-03-01T20:15:41;99023.66;;;3.04;98.62
7888;BME280;3989;48.810;9.208;2023-03-01T20:18:09;98958.34;;;2.76;97.41
7888;BME280;3989;48.810;9.208;2023-03-01T20:20:38;98914.47;;;2.54;96.39
7888;BME280;3989;48.810;9.208;2023-03-01T20:23:05;98986.38;;;3.09;95.75
7888;BME280;3989;48.810;9.208;2023-03-01T20:25:33;98945.63;;;2.81;95.28
7888;BME280;3989;48.810;9.208;2023-03-01T20:28:00;98887.88;;;2.57;94.43
7888;BME280;3989;48.810;9.208;2023-03-01T20:30:27;98985.53;;;3.08;94.33
7888;BME280;3989;48.810;9.208;2023-03-01T20:32:56;98876.84;;;2.63;93.72
7888;BME280;3989;48.810;9.208;2023-03-01T20:35:23;99022.63;;;3.48;94.02
7888;BME280;3989;48.810;9.208;2023-03-01T20:37:50;98892.13;;;2.70;94.03
7888;BME280;3989;48.810;9.208;2023-03-01T20:40:17;98898.53;;;2.56;95.27
7888;BME280;3989;48.810;9.208;2023-03-01T20:42:45;98867.47;;;2.39;96.87
7888;BME280;3989;48.810;9.208;2023-03-01T20:45:12;98992.25;;;3.01;98.54
7888;BME280;3989;48.810;9.208;2023-03-01T20:47:39;99009.09;;;2.89;100.00
7888;BME280;3989;48.810;9.208;2023-03-01T20:50:09;98981.88;;;2.57;100.00
7888;BME280;3989;48.810;9.208;2023-03-01T20:52:36;99003.31;;;2.52;100.00
7888;BME280;3989;48.810;9.208;2023-03-01T20:55:03;99013.25;;;2.49;100.00
7888;BME280;3989;48.810;9.208;2023-03-01T20:57:30;99006.97;;;2.29;100.00
7888;BME280;3989;48.810;9.208;2023-03-01T20:59:57;98996.78;;;2.25;100.00
7888;BME280;3989;48.810;9.208;2023-03-01T21:02:25;98997.72;;;2.24;100.00
7888;BME280;3989;48.810;9.208;2023-03-01T21:04:51;98916.53;;;1.75;100.00
7888;BME280;3989;48.810;9.208;2023-03-01T21:07:21;98975.59;;;2.04;100.00
7888;BME280;3989;48.810;9.208;2023-03-01T21:09:48;98947.66;;;1.81;100.00
7888;BME280;3989;48.810;9.208;2023-03-01T21:12:16;98797.47;;;0.84;100.00
7888;BME280;3989;48.810;9.208;2023-03-01T21:14:43;98995.47;;;2.08;100.00
7888;BME280;3989;48.810;9.208;2023-03-01T21:17:14;98997.41;;;2.06;100.00
7888;BME280;3989;48.810;9.208;2023-03-01T21:19:43;98848.97;;;1.09;100.00
7888;BME280;3989;48.810;9.208;2023-03-01T21:22:10;98989.75;;;2.03;100.00
7888;BME280;3989;48.810;9.208;2023-03-01T21:24:39;99010.09;;;2.12;100.00
7888;BME280;3989;48.810;9.208;2023-03-01T21:27:07;98916.66;;;1.51;100.00
7888;BME280;3989;48.810;9.208;2023-03-01T21:29:36;98889.06;;;1.45;100.00
7888;BME280;3989;48.810;9.208;2023-03-01T21:32:04;98981.97;;;2.01;100.00
7888;BME280;3989;48.810;9.208;2023-03-01T21:34:31;98955.41;;;1.82;100.00
7888;BME280;3989;48.810;9.208;2023-03-01T21:36:57;99002.28;;;2.10;100.00
7888;BME280;3989;48.810;9.208;2023-03-01T21:39:26;98973.47;;;1.87;100.00
7888;BME280;3989;48.810;9.208;2023-03-01T21:41:54;98969.50;;;1.81;100.00
7888;BME280;3989;48.810;9.208;2023-03-01T21:44:22;98977.78;;;1.77;100.00
7888;BME280;3989;48.810;9.208;2023-03-01T21:46:49;98980.41;;;1.88;100.00
7888;BME280;3989;48.810;9.208;2023-03-01T21:49:16;98952.66;;;1.62;100.00
7888;BME280;3989;48.810;9.208;2023-03-01T21:51:43;98989.75;;;1.81;100.00
7888;BME280;3989;48.810;9.208;2023-03-01T21:54:12;98992.13;;;1.73;100.00
7888;BME280;3989;48.810;9.208;2023-03-01T21:56:40;98976.41;;;1.49;100.00
7888;BME280;3989;48.810;9.208;2023-03-01T21:59:12;98987.44;;;1.54;100.00
7888;BME280;3989;48.810;9.208;2023-03-01T22:01:39;98911.22;;;1.08;100.00
7888;BME280;3989;48.810;9.208;2023-03-01T22:04:06;98968.53;;;1.49;100.00
7888;BME280;3989;48.810;9.208;2023-03-01T22:06:34;98956.47;;;1.35;100.00
7888;BME280;3989;48.810;9.208;2023-03-01T22:09:06;98893.28;;;1.02;100.00
7888;BME280;3989;48.810;9.208;2023-03-01T22:11:36;98975.72;;;1.69;100.00
7888;BME280;3989;48.810;9.208;2023-03-01T22:14:03;98880.75;;;1.17;100.00
7888;BME280;3989;48.810;9.208;2023-03-01T22:16:34;98961.00;;;1.55;100.00
7888;BME280;3989;48.810;9.208;2023-03-01T22:19:01;98938.66;;;1.39;100.00
7888;BME280;3989;48.810;9.208;2023-03-01T22:21:29;98994.25;;;1.56;100.00
7888;BME280;3989;48.810;9.208;2023-03-01T22:23:55;98879.63;;;0.86;100.00
7888;BME280;3989;48.810;9.208;2023-03-01T22:26:25;98771.41;;;0.13;100.00
7888;BME280;3989;48.810;9.208;2023-03-01T22:28:55;98809.31;;;0.32;100.00
7888;BME280;3989;48.810;9.208;2023-03-01T22:31:22;98954.97;;;1.09;100.00
7888;BME280;3989;48.810;9.208;2023-03-01T22:33:51;98819.44;;;0.13;100.00
7888;BME280;3989;48.810;9.208;2023-03-01T22:36:18;98924.56;;;0.59;100.00
7888;BME280;3989;48.810;9.208;2023-03-01T22:38:45;98990.69;;;0.88;100.00
7888;BME280;3989;48.810;9.208;2023-03-01T22:41:14;98792.50;;;-0.36;100.00
7888;BME280;3989;48.810;9.208;2023-03-01T22:43:41;98793.84;;;-0.31;100.00
7888;BME280;3989;48.810;9.208;2023-03-01T22:46:09;98937.63;;;0.72;100.00
7888;BME280;3989;48.810;9.208;2023-03-01T22:48:36;98806.16;;;0.04;100.00
7888;BME280;3989;48.810;9.208;2023-03-01T22:51:05;98931.25;;;0.98;100.00
7888;BME280;3989;48.810;9.208;2023-03-01T22:53:32;98985.34;;;1.24;100.00
7888;BME280;3989;48.810;9.208;2023-03-01T22:56:10;98881.97;;;0.67;100.00
7888;BME280;3989;48.810;9.208;2023-03-01T22:58:37;98935.81;;;0.96;100.00
7888;BME280;3989;48.810;9.208;2023-03-01T23:01:08;98957.81;;;1.06;100.00
7888;BME280;3989;48.810;9.208;2023-03-01T23:03:35;98908.50;;;0.75;100.00
7888;BME280;3989;48.810;9.208;2023-03-01T23:06:02;98846.94;;;0.20;100.00
7888;BME280;3989;48.810;9.208;2023-03-01T23:08:30;98849.91;;;0.16;100.00
7888;BME280;3989;48.810;9.208;2023-03-01T23:10:57;98866.59;;;0.15;100.00
7888;BME280;3989;48.810;9.208;2023-03-01T23:13:23;98974.91;;;0.77;100.00
7888;BME280;3989;48.810;9.208;2023-03-01T23:15:52;98933.34;;;0.47;100.00
7888;BME280;3989;48.810;9.208;2023-03-01T23:18:19;98980.75;;;0.57;100.00
7888;BME280;3989;48.810;9.208;2023-03-01T23:20:46;98898.22;;;0.00;100.00
7888;BME280;3989;48.810;9.208;2023-03-01T23:23:13;98908.41;;;0.05;100.00
7888;BME280;3989;48.810;9.208;2023-03-01T23:25:51;98916.28;;;0.05;100.00
7888;BME280;3989;48.810;9.208;2023-03-01T23:28:18;98793.63;;;-0.64;100.00
7888;BME280;3989;48.810;9.208;2023-03-01T23:30:52;98950.31;;;0.30;100.00
7888;BME280;3989;48.810;9.208;2023-03-01T23:33:19;98906.94;;;0.01;100.00
7888;BME280;3989;48.810;9.208;2023-03-01T23:35:46;98971.94;;;0.34;100.00
7888;BME280;3989;48.810;9.208;2023-03-01T23:38:12;98939.53;;;0.22;100.00
7888;BME280;3989;48.810;9.208;2023-03-01T23:40:39;98907.25;;;0.09;100.00
7888;BME280;3989;48.810;9.208;2023-03-01T23:43:08;98891.38;;;0.11;100.00
7888;BME280;3989;48.810;9.208;2023-03-01T23:45:36;98952.34;;;0.50;100.00
7888;BME280;3989;48.810;9.208;2023-03-01T23:48:09;98936.00;;;0.34;100.00
7888;BME280;3989;48.810;9.208;2023-03-01T23:50:36;98963.69;;;0.51;100.00
7888;BME280;3989;48.810;9.208;2023-03-01T23:53:07;98870.34;;;-0.01;100.00
7888;BME280;3989;48.810;9.208;2023-03-01T23:55:35;98959.13;;;0.53;100.00
7888;BME280;3989;48.810;9.208;2023-03-01T23:58:02;98868.16;;;-0.07;100.00
